sensor_id;sensor_type;location;lat;lon;timestamp;pressure;altitude;pressure_sealevel;temperature;humidity
56992;BME280;42885;49.754;18.636;2023-04-28T00:01:30;98733.27;;;5.61;100.00
56992;BME280;42885;49.754;18.636;2023-04-28T00:04:01;98733.39;;;5.70;100.00
56992;BME280;42885;49.754;18.636;2023-04-28T00:06:32;98731.86;;;5.22;100.00
56992;BME280;42885;49.754;18.636;2023-04-28T00:09:04;98744.04;;;5.06;100.00
56992;BME280;42885;49.754;18.636;2023-04-28T00:11:35;98735.75;;;5.22;100.00
56992;BME280;42885;49.754;18.636;2023-04-28T00:14:07;98742.02;;;5.43;100.00
56992;BME280;42885;49.754;18.636;2023-04-28T00:16:38;98740.92;;;5.50;100.00
56992;BME280;42885;49.754;18.636;2023-04-28T00:19:10;98733.55;;;5.38;100.00
56992;BME280;42885;49.754;18.636;2023-04-28T00:21:42;98740.66;;;5.18;100.00
56992;BME280;42885;49.754;18.636;2023-04-28T00:24:13;98740.77;;;5.28;100.00
56992;BME280;42885;49.754;18.636;2023-04-28T00:26:44;98738.78;;;5.23;100.00
56992;BME280;42885;49.754;18.636;2023-04-28T00:29:15;98729.77;;;5.20;100.00
56992;BME280;42885;49.754;18.636;2023-04-28T00:31:46;98736.14;;;5.38;100.00
56992;BME280;42885;49.754;18.636;2023-04-28T00:34:17;98735.35;;;5.36;100.00
56992;BME280;42885;49.754;18.636;2023-04-28T00:36:48;98741.70;;;5.12;100.00
56992;BME280;42885;49.754;18.636;2023-04-28T00:39:19;98745.66;;;4.95;100.00
56992;BME280;42885;49.754;18.636;2023-04-28T00:41:51;98743.06;;;4.95;100.00
56992;BME280;42885;49.754;18.636;2023-04-28T00:44:22;98740.08;;;5.08;100.00
56992;BME280;42885;49.754;18.636;2023-04-28T00:46:54;98739.72;;;5.05;100.00
56992;BME280;42885;49.754;18.636;2023-04-28T00:49:25;98737.41;;;5.24;100.00
56992;BME280;42885;49.754;18.636;2023-04-28T00:51:56;98738.78;;;5.23;100.00
56992;BME280;42885;49.754;18.636;2023-04-28T00:54:29;98746.89;;;5.12;100.00
56992;BME280;42885;49.754;18.636;2023-04-28T00:57:01;98733.13;;;5.23;100.00
56992;BME280;42885;49.754;18.636;2023-04-28T00:59:33;98745.45;;;5.02;100.00
56992;BME280;42885;49.754;18.636;2023-04-28T01:02:05;98743.17;;;5.06;100.00
56992;BME280;42885;49.754;18.636;2023-04-28T01:04:36;98746.55;;;4.94;100.00
56992;BME280;42885;49.754;18.636;2023-04-28T01:07:08;98740.62;;;5.04;100.00
56992;BME280;42885;49.754;18.636;2023-04-28T01:09:40;98743.71;;;5.02;100.00
56992;BME280;42885;49.754;18.636;2023-04-28T01:12:13;98744.19;;;5.15;100.00
56992;BME280;42885;49.754;18.636;2023-04-28T01:14:47;98750.67;;;5.71;100.00
56992;BME280;42885;49.754;18.636;2023-04-28T01:17:18;98752.40;;;5.01;100.00
56992;BME280;42885;49.754;18.636;2023-04-28T01:19:50;98744.08;;;5.18;100.00
56992;BME280;42885;49.754;18.636;2023-04-28T01:22:21;98742.53;;;5.13;100.00
56992;BME280;42885;49.754;18.636;2023-04-28T01:24:52;98744.16;;;5.17;100.00
56992;BME280;42885;49.754;18.636;2023-04-28T01:27:25;98738.86;;;5.20;100.00
56992;BME280;42885;49.754;18.636;2023-04-28T01:29:56;98739.39;;;5.31;100.00
56992;BME280;42885;49.754;18.636;2023-04-28T01:32:27;98735.86;;;5.19;100.00
56992;BME280;42885;49.754;18.636;2023-04-28T01:34:58;98740.91;;;5.23;100.00
56992;BME280;42885;49.754;18.636;2023-04-28T01:37:29;98743.21;;;5.04;100.00
56992;BME280;42885;49.754;18.636;2023-04-28T01:40:00;98736.52;;;5.26;100.00
56992;BME280;42885;49.754;18.636;2023-04-28T01:42:31;98731.49;;;5.34;100.00
56992;BME280;42885;49.754;18.636;2023-04-28T01:45:04;98728.75;;;5.39;100.00
56992;BME280;42885;49.754;18.636;2023-04-28T01:47:35;98732.55;;;5.56;100.00
56992;BME280;42885;49.754;18.636;2023-04-28T01:50:06;98738.20;;;5.27;100.00
56992;BME280;42885;49.754;18.636;2023-04-28T01:52:38;98743.69;;;5.17;100.00
56992;BME280;42885;49.754;18.636;2023-04-28T01:55:09;98743.90;;;5.11;100.00
56992;BME280;42885;49.754;18.636;2023-04-28T01:57:41;98741.91;;;5.33;100.00
56992;BME280;42885;49.754;18.636;2023-04-28T02:00:12;98743.68;;;5.32;100.00
56992;BME280;42885;49.754;18.636;2023-04-28T02:02:45;98733.75;;;5.45;100.00
56992;BME280;42885;49.754;18.636;2023-04-28T02:05:16;98729.95;;;5.56;100.00
56992;BME280;42885;49.754;18.636;2023-04-28T02:07:48;98734.66;;;5.44;100.00
56992;BME280;42885;49.754;18.636;2023-04-28T02:10:20;98729.61;;;5.40;100.00
56992;BME280;42885;49.754;18.636;2023-04-28T02:12:51;98727.97;;;5.22;100.00
56992;BME280;42885;49.754;18.636;2023-04-28T02:15:22;98732.08;;;5.29;100.00
56992;BME280;42885;49.754;18.636;2023-04-28T02:17:53;98736.04;;;5.28;100.00
56992;BME280;42885;49.754;18.636;2023-04-28T02:20:25;98733.34;;;5.31;100.00
56992;BME280;42885;49.754;18.636;2023-04-28T02:22:57;98728.30;;;5.53;100.00
56992;BME280;42885;49.754;18.636;2023-04-28T02:25:28;98731.95;;;5.47;100.00
56992;BME280;42885;49.754;18.636;2023-04-28T02:27:59;98734.23;;;5.30;100.00
56992;BME280;42885;49.754;18.636;2023-04-28T02:30:30;98727.75;;;5.30;100.00
56992;BME280;42885;49.754;18.636;2023-04-28T02:33:01;98727.03;;;5.11;100.00
56992;BME280;42885;49.754;18.636;2023-04-28T02:35:32;98727.83;;;5.13;100.00
56992;BME280;42885;49.754;18.636;2023-04-28T02:38:03;98731.89;;;5.35;100.00
56992;BME280;42885;49.754;18.636;2023-04-28T02:40:34;98730.97;;;4.79;100.00
56992;BME280;42885;49.754;18.636;2023-04-28T02:43:05;98727.49;;;4.95;100.00
56992;BME280;42885;49.754;18.636;2023-04-28T02:45:36;98723.31;;;5.33;100.00
56992;BME280;42885;49.754;18.636;2023-04-28T02:48:07;98717.78;;;5.44;100.00
56992;BME280;42885;49.754;18.636;2023-04-28T02:50:38;98722.84;;;5.34;100.00
56992;BME280;42885;49.754;18.636;2023-04-28T02:53:09;98714.74;;;5.03;100.00
56992;BME280;42885;49.754;18.636;2023-04-28T02:55:40;98715.36;;;5.24;100.00
56992;BME280;42885;49.754;18.636;2023-04-28T02:58:12;98718.27;;;5.29;100.00
56992;BME280;42885;49.754;18.636;2023-04-28T03:00:43;98718.11;;;5.47;100.00
56992;BME280;42885;49.754;18.636;2023-04-28T03:03:14;98713.20;;;5.78;100.00
56992;BME280;42885;49.754;18.636;2023-04-28T03:05:45;98723.64;;;5.22;100.00
56992;BME280;42885;49.754;18.636;2023-04-28T03:08:16;98726.45;;;5.01;100.00
56992;BME280;42885;49.754;18.636;2023-04-28T03:10:47;98726.21;;;5.51;100.00
56992;BME280;42885;49.754;18.636;2023-04-28T03:13:18;98720.95;;;5.66;100.00
56992;BME280;42885;49.754;18.636;2023-04-28T03:15:49;98722.95;;;5.31;100.00
56992;BME280;42885;49.754;18.636;2023-04-28T03:18:21;98719.86;;;5.19;100.00
56992;BME280;42885;49.754;18.636;2023-04-28T03:20:52;98718.22;;;5.44;100.00
56992;BME280;42885;49.754;18.636;2023-04-28T03:23:23;98715.37;;;5.78;100.00
56992;BME280;42885;49.754;18.636;2023-04-28T03:25:54;98721.40;;;6.18;100.00
56992;BME280;42885;49.754;18.636;2023-04-28T03:28:26;98711.42;;;6.43;100.00
56992;BME280;42885;49.754;18.636;2023-04-28T03:30:58;98716.23;;;6.66;100.00
56992;BME280;42885;49.754;18.636;2023-04-28T03:33:29;98711.67;;;6.49;98.75
56992;BME280;42885;49.754;18.636;2023-04-28T03:36:01;98710.22;;;6.16;100.00
56992;BME280;42885;49.754;18.636;2023-04-28T03:38:33;98707.47;;;6.32;100.00
56992;BME280;42885;49.754;18.636;2023-04-28T03:41:04;98709.56;;;6.58;100.00
56992;BME280;42885;49.754;18.636;2023-04-28T03:43:40;98701.48;;;6.78;98.03
56992;BME280;42885;49.754;18.636;2023-04-28T03:46:13;98700.04;;;6.93;95.71
56992;BME280;42885;49.754;18.636;2023-04-28T03:48:44;98696.48;;;6.96;93.04
56992;BME280;42885;49.754;18.636;2023-04-28T03:51:15;98698.79;;;6.92;93.29
56992;BME280;42885;49.754;18.636;2023-04-28T03:53:46;98694.86;;;6.81;93.83
56992;BME280;42885;49.754;18.636;2023-04-28T03:56:18;98700.36;;;6.73;95.51
56992;BME280;42885;49.754;18.636;2023-04-28T03:58:49;98699.84;;;6.40;97.56
56992;BME280;42885;49.754;18.636;2023-04-28T04:01:20;98701.72;;;6.48;98.76
56992;BME280;42885;49.754;18.636;2023-04-28T04:03:52;98700.80;;;6.73;98.85
56992;BME280;42885;49.754;18.636;2023-04-28T04:06:23;98696.83;;;7.31;94.42
56992;BME280;42885;49.754;18.636;2023-04-28T04:08:54;98698.95;;;7.43;93.97
56992;BME280;42885;49.754;18.636;2023-04-28T04:11:26;98700.04;;;6.93;95.89
56992;BME280;42885;49.754;18.636;2023-04-28T04:13:57;98701.45;;;6.56;97.50
56992;BME280;42885;49.754;18.636;2023-04-28T04:16:28;98706.11;;;7.16;92.98
56992;BME280;42885;49.754;18.636;2023-04-28T04:19:00;98703.64;;;7.46;94.65
56992;BME280;42885;49.754;18.636;2023-04-28T04:21:35;98709.17;;;7.26;94.05
56992;BME280;42885;49.754;18.636;2023-04-28T04:24:07;98709.14;;;7.81;90.27
56992;BME280;42885;49.754;18.636;2023-04-28T04:26:38;98713.17;;;7.98;86.81
56992;BME280;42885;49.754;18.636;2023-04-28T04:29:11;98710.55;;;8.30;81.98
56992;BME280;42885;49.754;18.636;2023-04-28T04:31:42;98711.73;;;8.62;77.18
56992;BME280;42885;49.754;18.636;2023-04-28T04:34:15;98708.26;;;8.72;75.38
56992;BME280;42885;49.754;18.636;2023-04-28T04:36:47;98707.91;;;8.61;75.44
56992;BME280;42885;49.754;18.636;2023-04-28T04:39:18;98701.25;;;8.83;71.56
56992;BME280;42885;49.754;18.636;2023-04-28T04:41:50;98716.92;;;8.92;68.36
56992;BME280;42885;49.754;18.636;2023-04-28T04:44:23;98712.67;;;9.08;66.52
56992;BME280;42885;49.754;18.636;2023-04-28T04:46:55;98713.73;;;9.32;64.41
56992;BME280;42885;49.754;18.636;2023-04-28T04:49:26;98708.24;;;9.47;62.30
56992;BME280;42885;49.754;18.636;2023-04-28T04:51:58;98707.55;;;9.44;62.22
56992;BME280;42885;49.754;18.636;2023-04-28T04:54:31;98708.22;;;9.30;61.26
56992;BME280;42885;49.754;18.636;2023-04-28T04:57:02;98706.61;;;9.54;61.01
56992;BME280;42885;49.754;18.636;2023-04-28T04:59:38;98702.86;;;9.68;58.91
56992;BME280;42885;49.754;18.636;2023-04-28T05:02:10;98701.48;;;9.70;61.39
56992;BME280;42885;49.754;18.636;2023-04-28T05:04:42;98702.25;;;9.72;58.82
56992;BME280;42885;49.754;18.636;2023-04-28T05:07:13;98696.02;;;9.66;59.45
56992;BME280;42885;49.754;18.636;2023-04-28T05:09:45;98694.30;;;10.00;56.92
56992;BME280;42885;49.754;18.636;2023-04-28T05:12:16;98694.30;;;10.00;56.92
56992;BME280;42885;49.754;18.636;2023-04-28T05:14:47;98696.61;;;10.06;57.29
56992;BME280;42885;49.754;18.636;2023-04-28T05:17:18;98696.20;;;10.23;57.47
56992;BME280;42885;49.754;18.636;2023-04-28T05:19:50;98697.45;;;10.40;55.44
56992;BME280;42885;49.754;18.636;2023-04-28T05:22:21;98704.31;;;10.77;54.80
56992;BME280;42885;49.754;18.636;2023-04-28T05:24:52;98697.46;;;10.90;53.50
56992;BME280;42885;49.754;18.636;2023-04-28T05:27:23;98700.39;;;10.77;54.01
56992;BME280;42885;49.754;18.636;2023-04-28T05:29:54;98701.52;;;10.80;55.54
56992;BME280;42885;49.754;18.636;2023-04-28T05:32:25;98692.57;;;11.00;54.14
56992;BME280;42885;49.754;18.636;2023-04-28T05:34:57;98695.82;;;10.96;54.54
56992;BME280;42885;49.754;18.636;2023-04-28T05:37:28;98694.75;;;11.08;52.48
56992;BME280;42885;49.754;18.636;2023-04-28T05:39:59;98698.16;;;11.33;51.96
56992;BME280;42885;49.754;18.636;2023-04-28T05:42:32;98696.20;;;11.37;52.12
56992;BME280;42885;49.754;18.636;2023-04-28T05:45:04;98694.69;;;11.56;51.61
56992;BME280;42885;49.754;18.636;2023-04-28T05:47:36;98694.61;;;11.65;52.04
56992;BME280;42885;49.754;18.636;2023-04-28T05:50:07;98693.36;;;11.87;50.29
56992;BME280;42885;49.754;18.636;2023-04-28T05:52:39;98691.05;;;11.59;49.49
56992;BME280;42885;49.754;18.636;2023-04-28T05:55:10;98692.84;;;11.35;49.75
56992;BME280;42885;49.754;18.636;2023-04-28T05:57:42;98691.12;;;11.26;49.92
56992;BME280;42885;49.754;18.636;2023-04-28T06:00:14;98690.52;;;11.37;49.86
56992;BME280;42885;49.754;18.636;2023-04-28T06:02:45;98688.22;;;11.54;48.56
56992;BME280;42885;49.754;18.636;2023-04-28T06:05:16;98687.52;;;11.67;48.37
56992;BME280;42885;49.754;18.636;2023-04-28T06:07:48;98689.59;;;12.07;47.27
56992;BME280;42885;49.754;18.636;2023-04-28T06:10:21;98687.25;;;12.09;47.17
56992;BME280;42885;49.754;18.636;2023-04-28T06:12:53;98684.05;;;12.62;50.79
56992;BME280;42885;49.754;18.636;2023-04-28T06:15:24;98679.32;;;13.17;49.46
56992;BME280;42885;49.754;18.636;2023-04-28T06:17:57;98677.08;;;13.11;47.28
56992;BME280;42885;49.754;18.636;2023-04-28T06:20:28;98673.41;;;13.68;46.59
56992;BME280;42885;49.754;18.636;2023-04-28T06:22:59;98666.65;;;13.64;50.13
56992;BME280;42885;49.754;18.636;2023-04-28T06:25:32;98669.06;;;13.27;45.63
56992;BME280;42885;49.754;18.636;2023-04-28T06:28:03;98672.94;;;13.21;45.64
56992;BME280;42885;49.754;18.636;2023-04-28T06:30:35;98663.58;;;13.10;44.64
56992;BME280;42885;49.754;18.636;2023-04-28T06:33:06;98663.25;;;13.21;45.06
56992;BME280;42885;49.754;18.636;2023-04-28T06:35:37;98658.81;;;13.09;44.02
56992;BME280;42885;49.754;18.636;2023-04-28T06:38:08;98662.68;;;13.44;45.64
56992;BME280;42885;49.754;18.636;2023-04-28T06:40:39;98668.80;;;13.52;43.80
56992;BME280;42885;49.754;18.636;2023-04-28T06:43:11;98656.59;;;13.51;43.94
56992;BME280;42885;49.754;18.636;2023-04-28T06:45:44;98662.25;;;13.37;42.99
56992;BME280;42885;49.754;18.636;2023-04-28T06:48:15;98666.28;;;13.63;43.08
56992;BME280;42885;49.754;18.636;2023-04-28T06:50:46;98657.91;;;13.84;42.70
56992;BME280;42885;49.754;18.636;2023-04-28T06:53:17;98661.00;;;14.09;42.27
56992;BME280;42885;49.754;18.636;2023-04-28T06:55:48;98654.91;;;14.22;41.35
56992;BME280;42885;49.754;18.636;2023-04-28T06:58:20;98655.28;;;14.10;41.49
56992;BME280;42885;49.754;18.636;2023-04-28T07:00:51;98657.81;;;14.11;41.20
56992;BME280;42885;49.754;18.636;2023-04-28T07:03:22;98643.73;;;14.31;41.04
56992;BME280;42885;49.754;18.636;2023-04-28T07:05:53;98642.01;;;14.24;41.39
56992;BME280;42885;49.754;18.636;2023-04-28T07:08:24;98637.02;;;14.45;41.12
56992;BME280;42885;49.754;18.636;2023-04-28T07:10:55;98640.83;;;14.28;40.32
56992;BME280;42885;49.754;18.636;2023-04-28T07:13:26;98637.84;;;14.46;39.94
56992;BME280;42885;49.754;18.636;2023-04-28T07:15:57;98641.96;;;14.69;39.59
56992;BME280;42885;49.754;18.636;2023-04-28T07:18:28;98632.98;;;14.84;39.36
56992;BME280;42885;49.754;18.636;2023-04-28T07:21:00;98635.93;;;14.74;38.95
56992;BME280;42885;49.754;18.636;2023-04-28T07:23:31;98633.68;;;15.30;39.45
56992;BME280;42885;49.754;18.636;2023-04-28T07:26:02;98634.95;;;15.60;39.29
56992;BME280;42885;49.754;18.636;2023-04-28T07:28:33;98626.37;;;15.69;38.39
56992;BME280;42885;49.754;18.636;2023-04-28T07:31:04;98620.84;;;15.66;37.89
56992;BME280;42885;49.754;18.636;2023-04-28T07:33:35;98621.45;;;15.76;36.72
56992;BME280;42885;49.754;18.636;2023-04-28T07:36:06;98608.06;;;16.13;37.29
56992;BME280;42885;49.754;18.636;2023-04-28T07:38:37;98613.35;;;16.02;36.98
56992;BME280;42885;49.754;18.636;2023-04-28T07:41:08;98606.27;;;16.36;36.75
56992;BME280;42885;49.754;18.636;2023-04-28T07:43:40;98603.86;;;16.45;36.16
56992;BME280;42885;49.754;18.636;2023-04-28T07:46:12;98605.04;;;16.46;36.74
56992;BME280;42885;49.754;18.636;2023-04-28T07:48:43;98601.22;;;16.28;35.52
56992;BME280;42885;49.754;18.636;2023-04-28T07:51:14;98597.47;;;16.47;35.95
56992;BME280;42885;49.754;18.636;2023-04-28T07:53:45;98597.75;;;16.10;35.84
56992;BME280;42885;49.754;18.636;2023-04-28T07:56:16;98604.58;;;16.30;35.70
56992;BME280;42885;49.754;18.636;2023-04-28T07:58:47;98599.53;;;16.38;37.39
56992;BME280;42885;49.754;18.636;2023-04-28T08:01:18;98592.20;;;16.53;35.34
56992;BME280;42885;49.754;18.636;2023-04-28T08:03:49;98591.19;;;16.77;36.55
56992;BME280;42885;49.754;18.636;2023-04-28T08:06:22;98590.77;;;16.93;37.56
56992;BME280;42885;49.754;18.636;2023-04-28T08:08:53;98589.06;;;17.03;36.05
56992;BME280;42885;49.754;18.636;2023-04-28T08:11:26;98587.08;;;16.78;35.79
56992;BME280;42885;49.754;18.636;2023-04-28T08:13:59;98586.77;;;16.99;36.23
56992;BME280;42885;49.754;18.636;2023-04-28T08:16:35;98589.50;;;16.70;36.17
56992;BME280;42885;49.754;18.636;2023-04-28T08:19:14;98585.89;;;16.71;36.65
56992;BME280;42885;49.754;18.636;2023-04-28T08:21:44;98576.47;;;17.01;35.50
56992;BME280;42885;49.754;18.636;2023-04-28T08:24:15;98573.38;;;17.23;35.90
56992;BME280;42885;49.754;18.636;2023-04-28T08:26:47;98566.17;;;17.14;35.74
56992;BME280;42885;49.754;18.636;2023-04-28T08:29:19;98568.86;;;17.08;35.66
56992;BME280;42885;49.754;18.636;2023-04-28T08:31:51;98564.50;;;17.18;36.21
56992;BME280;42885;49.754;18.636;2023-04-28T08:34:22;98563.11;;;17.30;37.13
56992;BME280;42885;49.754;18.636;2023-04-28T08:36:53;98555.91;;;16.99;36.02
56992;BME280;42885;49.754;18.636;2023-04-28T08:39:25;98559.02;;;17.04;36.56
56992;BME280;42885;49.754;18.636;2023-04-28T08:41:56;98562.01;;;17.05;36.11
56992;BME280;42885;49.754;18.636;2023-04-28T08:44:27;98558.09;;;17.27;36.20
56992;BME280;42885;49.754;18.636;2023-04-28T08:46:59;98555.09;;;17.20;35.10
56992;BME280;42885;49.754;18.636;2023-04-28T08:49:34;98560.20;;;17.70;35.33
56992;BME280;42885;49.754;18.636;2023-04-28T08:52:10;98557.72;;;17.63;34.86
56992;BME280;42885;49.754;18.636;2023-04-28T08:54:42;98548.20;;;17.50;34.87
56992;BME280;42885;49.754;18.636;2023-04-28T08:57:14;98547.69;;;17.56;35.37
56992;BME280;42885;49.754;18.636;2023-04-28T08:59:46;98548.30;;;18.01;35.30
56992;BME280;42885;49.754;18.636;2023-04-28T09:02:18;98543.67;;;18.09;34.27
56992;BME280;42885;49.754;18.636;2023-04-28T09:04:49;98543.81;;;18.78;35.65
56992;BME280;42885;49.754;18.636;2023-04-28T09:07:20;98541.95;;;18.94;33.21
56992;BME280;42885;49.754;18.636;2023-04-28T09:10:14;98540.84;;;19.06;34.83
56992;BME280;42885;49.754;18.636;2023-04-28T09:12:35;98533.01;;;18.95;31.97
56992;BME280;42885;49.754;18.636;2023-04-28T09:14:58;98539.00;;;19.36;33.06
56992;BME280;42885;49.754;18.636;2023-04-28T09:17:31;98528.40;;;19.60;33.55
56992;BME280;42885;49.754;18.636;2023-04-28T09:20:02;98525.77;;;20.12;32.54
56992;BME280;42885;49.754;18.636;2023-04-28T09:22:34;98522.45;;;19.29;32.22
56992;BME280;42885;49.754;18.636;2023-04-28T09:25:11;98521.16;;;19.19;32.46
56992;BME280;42885;49.754;18.636;2023-04-28T09:27:42;98523.22;;;19.59;33.04
56992;BME280;42885;49.754;18.636;2023-04-28T09:30:13;98522.32;;;19.20;32.69
56992;BME280;42885;49.754;18.636;2023-04-28T09:32:44;98519.42;;;19.47;32.76
56992;BME280;42885;49.754;18.636;2023-04-28T09:35:16;98522.66;;;19.31;31.80
56992;BME280;42885;49.754;18.636;2023-04-28T09:37:56;98512.91;;;19.22;31.25
56992;BME280;42885;49.754;18.636;2023-04-28T09:40:22;98507.22;;;19.54;31.71
56992;BME280;42885;49.754;18.636;2023-04-28T09:42:53;98502.68;;;19.99;31.90
56992;BME280;42885;49.754;18.636;2023-04-28T09:45:24;98504.38;;;19.76;31.32
56992;BME280;42885;49.754;18.636;2023-04-28T09:48:08;98499.10;;;19.42;31.32
56992;BME280;42885;49.754;18.636;2023-04-28T09:50:38;98498.86;;;19.97;32.44
56992;BME280;42885;49.754;18.636;2023-04-28T09:53:04;98486.65;;;20.36;30.88
56992;BME280;42885;49.754;18.636;2023-04-28T09:55:36;98482.38;;;20.40;31.23
56992;BME280;42885;49.754;18.636;2023-04-28T09:58:09;98481.34;;;20.36;30.93
56992;BME280;42885;49.754;18.636;2023-04-28T10:00:41;98480.73;;;20.11;30.60
56992;BME280;42885;49.754;18.636;2023-04-28T10:03:14;98475.63;;;20.63;31.28
56992;BME280;42885;49.754;18.636;2023-04-28T10:05:47;98468.98;;;20.63;31.21
56992;BME280;42885;49.754;18.636;2023-04-28T10:08:22;98475.41;;;19.83;31.07
56992;BME280;42885;49.754;18.636;2023-04-28T10:10:53;98462.47;;;20.44;32.38
56992;BME280;42885;49.754;18.636;2023-04-28T10:13:25;98456.03;;;20.65;31.56
56992;BME280;42885;49.754;18.636;2023-04-28T10:15:58;98460.35;;;20.66;31.35
56992;BME280;42885;49.754;18.636;2023-04-28T10:18:30;98447.19;;;20.10;30.22
56992;BME280;42885;49.754;18.636;2023-04-28T10:21:02;98443.22;;;20.64;30.03
56992;BME280;42885;49.754;18.636;2023-04-28T10:24:14;98439.44;;;20.71;30.78
56992;BME280;42885;49.754;18.636;2023-04-28T10:26:18;98439.03;;;20.61;31.72
56992;BME280;42885;49.754;18.636;2023-04-28T10:28:51;98424.97;;;21.40;30.66
56992;BME280;42885;49.754;18.636;2023-04-28T10:31:22;98432.20;;;21.26;29.98
56992;BME280;42885;49.754;18.636;2023-04-28T10:33:53;98421.52;;;21.95;28.89
56992;BME280;42885;49.754;18.636;2023-04-28T10:36:51;98426.73;;;21.31;30.42
56992;BME280;42885;49.754;18.636;2023-04-28T10:39:15;98420.26;;;20.81;30.55
56992;BME280;42885;49.754;18.636;2023-04-28T10:41:47;98422.13;;;21.11;30.80
56992;BME280;42885;49.754;18.636;2023-04-28T10:47:08;98401.98;;;20.82;29.42
56992;BME280;42885;49.754;18.636;2023-04-28T10:55:30;98396.43;;;22.10;30.04
56992;BME280;42885;49.754;18.636;2023-04-28T11:00:48;98388.01;;;20.80;29.34
56992;BME280;42885;49.754;18.636;2023-04-28T11:06:22;98380.95;;;22.22;29.03
56992;BME280;42885;49.754;18.636;2023-04-28T11:09:02;98388.69;;;20.60;29.01
56992;BME280;42885;49.754;18.636;2023-04-28T11:11:33;98388.69;;;20.60;29.01
56992;BME280;42885;49.754;18.636;2023-04-28T11:17:09;98388.72;;;20.05;29.25
56992;BME280;42885;49.754;18.636;2023-04-28T11:19:44;98383.02;;;20.00;28.89
56992;BME280;42885;49.754;18.636;2023-04-28T11:22:19;98373.36;;;21.33;28.87
56992;BME280;42885;49.754;18.636;2023-04-28T11:24:58;98377.44;;;22.13;28.53
56992;BME280;42885;49.754;18.636;2023-04-28T11:27:31;98374.11;;;22.40;26.50
56992;BME280;42885;49.754;18.636;2023-04-28T11:30:02;98366.19;;;23.22;25.83
56992;BME280;42885;49.754;18.636;2023-04-28T11:32:34;98364.28;;;24.53;26.59
56992;BME280;42885;49.754;18.636;2023-04-28T11:35:06;98367.20;;;23.17;25.54
56992;BME280;42885;49.754;18.636;2023-04-28T11:37:37;98370.75;;;22.96;26.00
56992;BME280;42885;49.754;18.636;2023-04-28T11:40:11;98351.05;;;25.76;26.06
56992;BME280;42885;49.754;18.636;2023-04-28T11:42:48;98357.16;;;23.99;25.53
56992;BME280;42885;49.754;18.636;2023-04-28T11:45:20;98354.36;;;23.92;25.99
56992;BME280;42885;49.754;18.636;2023-04-28T11:47:51;98354.53;;;23.90;25.79
56992;BME280;42885;49.754;18.636;2023-04-28T11:50:37;98352.70;;;24.76;24.91
56992;BME280;42885;49.754;18.636;2023-04-28T11:53:08;98348.65;;;24.61;25.71
56992;BME280;42885;49.754;18.636;2023-04-28T11:55:42;98353.89;;;24.73;25.22
56992;BME280;42885;49.754;18.636;2023-04-28T11:58:19;98347.19;;;25.23;25.49
56992;BME280;42885;49.754;18.636;2023-04-28T12:01:11;98343.84;;;24.95;24.35
56992;BME280;42885;49.754;18.636;2023-04-28T12:03:47;98338.31;;;24.77;25.39
56992;BME280;42885;49.754;18.636;2023-04-28T12:06:25;98341.61;;;24.26;24.79
56992;BME280;42885;49.754;18.636;2023-04-28T12:08:59;98329.90;;;24.99;25.23
56992;BME280;42885;49.754;18.636;2023-04-28T12:11:59;98330.91;;;25.28;25.31
56992;BME280;42885;49.754;18.636;2023-04-28T12:17:29;98325.66;;;25.20;25.04
56992;BME280;42885;49.754;18.636;2023-04-28T12:20:02;98319.30;;;26.28;23.87
56992;BME280;42885;49.754;18.636;2023-04-28T12:22:47;98318.30;;;25.44;25.36
56992;BME280;42885;49.754;18.636;2023-04-28T12:25:20;98317.87;;;25.77;24.83
56992;BME280;42885;49.754;18.636;2023-04-28T12:28:01;98302.83;;;25.98;24.74
56992;BME280;42885;49.754;18.636;2023-04-28T12:30:36;98303.47;;;26.61;23.85
56992;BME280;42885;49.754;18.636;2023-04-28T12:33:26;98288.59;;;27.12;23.20
56992;BME280;42885;49.754;18.636;2023-04-28T12:36:03;98289.70;;;27.55;23.36
56992;BME280;42885;49.754;18.636;2023-04-28T12:38:45;98280.89;;;28.02;23.24
56992;BME280;42885;49.754;18.636;2023-04-28T12:41:11;98283.84;;;26.61;22.65
56992;BME280;42885;49.754;18.636;2023-04-28T12:43:42;98284.83;;;27.30;22.60
56992;BME280;42885;49.754;18.636;2023-04-28T12:46:13;98279.17;;;26.70;22.46
56992;BME280;42885;49.754;18.636;2023-04-28T12:48:44;98278.38;;;25.97;24.91
56992;BME280;42885;49.754;18.636;2023-04-28T12:51:15;98285.27;;;25.37;25.09
56992;BME280;42885;49.754;18.636;2023-04-28T12:53:46;98280.98;;;25.32;25.19
56992;BME280;42885;49.754;18.636;2023-04-28T12:56:17;98284.11;;;24.45;25.52
56992;BME280;42885;49.754;18.636;2023-04-28T12:58:49;98276.77;;;23.81;26.64
56992;BME280;42885;49.754;18.636;2023-04-28T13:01:20;98270.93;;;24.01;26.53
56992;BME280;42885;49.754;18.636;2023-04-28T13:03:51;98274.43;;;25.19;26.18
56992;BME280;42885;49.754;18.636;2023-04-28T13:06:23;98273.16;;;25.15;24.98
56992;BME280;42885;49.754;18.636;2023-04-28T13:08:54;98260.12;;;26.82;23.52
56992;BME280;42885;49.754;18.636;2023-04-28T13:11:25;98256.78;;;25.14;23.85
56992;BME280;42885;49.754;18.636;2023-04-28T13:13:57;98242.81;;;26.10;23.48
56992;BME280;42885;49.754;18.636;2023-04-28T13:16:28;98246.11;;;27.35;22.34
56992;BME280;42885;49.754;18.636;2023-04-28T13:19:00;98242.73;;;26.89;22.51
56992;BME280;42885;49.754;18.636;2023-04-28T13:21:31;98245.72;;;25.87;24.08
56992;BME280;42885;49.754;18.636;2023-04-28T13:24:02;98249.77;;;24.68;24.46
56992;BME280;42885;49.754;18.636;2023-04-28T13:26:33;98255.62;;;24.67;24.07
56992;BME280;42885;49.754;18.636;2023-04-28T13:29:05;98252.03;;;27.48;23.60
56992;BME280;42885;49.754;18.636;2023-04-28T13:31:37;98251.36;;;30.72;21.75
56992;BME280;42885;49.754;18.636;2023-04-28T13:34:08;98251.59;;;27.69;22.26
56992;BME280;42885;49.754;18.636;2023-04-28T13:36:41;98250.50;;;25.80;23.04